sensor_id;sensor_type;location;lat;lon;timestamp;P1;durP1;ratioP1;P2;durP2;ratioP2
37451;SDS011;23314;51.114;6.900;2022-12-18T00:02:11;22.03;;;11.93;;
37451;SDS011;23314;51.114;6.900;2022-12-18T00:04:36;22.80;;;13.30;;
37451;SDS011;23314;51.114;6.900;2022-12-18T00:07:01;21.10;;;12.83;;
37451;SDS011;23314;51.114;6.900;2022-12-18T00:09:27;28.60;;;13.93;;
37451;SDS011;23314;51.114;6.900;2022-12-18T00:11:53;22.70;;;13.70;;
37451;SDS011;23314;51.114;6.900;2022-12-18T00:14:18;21.30;;;12.50;;
37451;SDS011;23314;51.114;6.900;2022-12-18T00:16:44;22.60;;;11.80;;
37451;SDS011;23314;51.114;6.900;2022-12-18T00:19:11;22.07;;;12.07;;
37451;SDS011;23314;51.114;6.900;2022-12-18T00:21:41;20.50;;;11.90;;
37451;SDS011;23314;51.114;6.900;2022-12-18T00:24:07;23.47;;;13.53;;
37451;SDS011;23314;51.114;6.900;2022-12-18T00:26:35;22.03;;;12.63;;
37451;SDS011;23314;51.114;6.900;2022-12-18T00:29:03;21.57;;;12.67;;
37451;SDS011;23314;51.114;6.900;2022-12-18T00:31:30;21.67;;;12.07;;
37451;SDS011;23314;51.114;6.900;2022-12-18T00:33:56;18.70;;;11.67;;
37451;SDS011;23314;51.114;6.900;2022-12-18T00:36:24;19.27;;;11.43;;
37451;SDS011;23314;51.114;6.900;2022-12-18T00:38:50;20.97;;;12.50;;
37451;SDS011;23314;51.114;6.900;2022-12-18T00:41:17;23.50;;;11.63;;
37451;SDS011;23314;51.114;6.900;2022-12-18T00:44:02;23.03;;;12.33;;
37451;SDS011;23314;51.114;6.900;2022-12-18T00:46:27;20.97;;;11.33;;
37451;SDS011;23314;51.114;6.900;2022-12-18T00:48:53;20.47;;;11.93;;
37451;SDS011;23314;51.114;6.900;2022-12-18T00:51:18;22.73;;;12.30;;
37451;SDS011;23314;51.114;6.900;2022-12-18T00:53:43;23.33;;;11.90;;
37451;SDS011;23314;51.114;6.900;2022-12-18T00:56:09;21.00;;;12.37;;
37451;SDS011;23314;51.114;6.900;2022-12-18T00:58:34;19.87;;;12.47;;
37451;SDS011;23314;51.114;6.900;2022-12-18T01:00:59;19.57;;;11.77;;
37451;SDS011;23314;51.114;6.900;2022-12-18T01:03:24;21.70;;;12.43;;
37451;SDS011;23314;51.114;6.900;2022-12-18T01:05:50;20.60;;;12.43;;
37451;SDS011;23314;51.114;6.900;2022-12-18T01:08:15;25.07;;;12.90;;
37451;SDS011;23314;51.114;6.900;2022-12-18T01:10:40;24.03;;;12.70;;
37451;SDS011;23314;51.114;6.900;2022-12-18T01:13:06;22.63;;;12.83;;
37451;SDS011;23314;51.114;6.900;2022-12-18T01:15:31;22.17;;;12.10;;
37451;SDS011;23314;51.114;6.900;2022-12-18T01:17:57;22.80;;;12.57;;
37451;SDS011;23314;51.114;6.900;2022-12-18T01:20:22;22.97;;;13.17;;
37451;SDS011;23314;51.114;6.900;2022-12-18T01:22:47;21.73;;;12.27;;
37451;SDS011;23314;51.114;6.900;2022-12-18T01:25:13;22.10;;;12.37;;
37451;SDS011;23314;51.114;6.900;2022-12-18T01:27:38;20.77;;;12.07;;
37451;SDS011;23314;51.114;6.900;2022-12-18T01:30:03;22.33;;;12.57;;
37451;SDS011;23314;51.114;6.900;2022-12-18T01:32:30;21.83;;;12.20;;
37451;SDS011;23314;51.114;6.900;2022-12-18T01:34:56;23.90;;;11.73;;
37451;SDS011;23314;51.114;6.900;2022-12-18T01:37:21;22.07;;;12.50;;
37451;SDS011;23314;51.114;6.900;2022-12-18T01:39:46;21.77;;;12.60;;
37451;SDS011;23314;51.114;6.900;2022-12-18T01:42:13;26.70;;;13.37;;
37451;SDS011;23314;51.114;6.900;2022-12-18T01:47:33;19.93;;;12.10;;
37451;SDS011;23314;51.114;6.900;2022-12-18T01:50:06;22.10;;;12.13;;
37451;SDS011;23314;51.114;6.900;2022-12-18T01:52:35;23.20;;;12.60;;
37451;SDS011;23314;51.114;6.900;2022-12-18T01:55:02;21.73;;;12.63;;
37451;SDS011;23314;51.114;6.900;2022-12-18T01:57:29;22.83;;;12.17;;
37451;SDS011;23314;51.114;6.900;2022-12-18T01:59:56;17.67;;;11.23;;
37451;SDS011;23314;51.114;6.900;2022-12-18T02:02:26;19.87;;;12.13;;
37451;SDS011;23314;51.114;6.900;2022-12-18T02:04:53;22.37;;;12.50;;
37451;SDS011;23314;51.114;6.900;2022-12-18T02:15:36;22.13;;;12.60;;
37451;SDS011;23314;51.114;6.900;2022-12-18T02:18:13;21.87;;;12.73;;
37451;SDS011;23314;51.114;6.900;2022-12-18T02:21:05;22.27;;;12.00;;
37451;SDS011;23314;51.114;6.900;2022-12-18T02:23:56;20.63;;;11.93;;
37451;SDS011;23314;51.114;6.900;2022-12-18T02:26:26;22.30;;;12.23;;
37451;SDS011;23314;51.114;6.900;2022-12-18T02:29:09;23.53;;;12.67;;
37451;SDS011;23314;51.114;6.900;2022-12-18T02:31:39;25.70;;;13.03;;
37451;SDS011;23314;51.114;6.900;2022-12-18T02:34:09;20.47;;;11.33;;
37451;SDS011;23314;51.114;6.900;2022-12-18T02:36:36;20.87;;;11.73;;
37451;SDS011;23314;51.114;6.900;2022-12-18T02:39:04;22.67;;;13.10;;
37451;SDS011;23314;51.114;6.900;2022-12-18T02:41:31;21.40;;;12.80;;
37451;SDS011;23314;51.114;6.900;2022-12-18T02:43:58;19.07;;;11.63;;
37451;SDS011;23314;51.114;6.900;2022-12-18T02:46:26;21.90;;;12.30;;
37451;SDS011;23314;51.114;6.900;2022-12-18T02:54:37;18.87;;;11.87;;
37451;SDS011;23314;51.114;6.900;2022-12-18T02:57:15;20.10;;;11.57;;
37451;SDS011;23314;51.114;6.900;2022-12-18T02:59:56;21.33;;;12.20;;
37451;SDS011;23314;51.114;6.900;2022-12-18T03:02:33;20.87;;;11.63;;
37451;SDS011;23314;51.114;6.900;2022-12-18T03:05:24;18.93;;;11.60;;
37451;SDS011;23314;51.114;6.900;2022-12-18T03:07:57;19.03;;;11.57;;
37451;SDS011;23314;51.114;6.900;2022-12-18T03:10:28;20.93;;;11.70;;
37451;SDS011;23314;51.114;6.900;2022-12-18T03:13:00;21.20;;;12.00;;
37451;SDS011;23314;51.114;6.900;2022-12-18T03:15:30;19.60;;;11.83;;
37451;SDS011;23314;51.114;6.900;2022-12-18T03:18:01;21.00;;;11.00;;
37451;SDS011;23314;51.114;6.900;2022-12-18T03:20:30;19.00;;;11.87;;
37451;SDS011;23314;51.114;6.900;2022-12-18T03:23:09;18.83;;;11.37;;
37451;SDS011;23314;51.114;6.900;2022-12-18T03:25:38;18.77;;;10.90;;
37451;SDS011;23314;51.114;6.900;2022-12-18T03:28:07;21.13;;;11.50;;
37451;SDS011;23314;51.114;6.900;2022-12-18T03:30:37;19.27;;;11.77;;
37451;SDS011;23314;51.114;6.900;2022-12-18T03:33:12;15.23;;;10.70;;
37451;SDS011;23314;51.114;6.900;2022-12-18T03:35:44;22.17;;;11.40;;
37451;SDS011;23314;51.114;6.900;2022-12-18T03:38:10;22.50;;;12.20;;
37451;SDS011;23314;51.114;6.900;2022-12-18T03:43:16;20.70;;;11.70;;
37451;SDS011;23314;51.114;6.900;2022-12-18T03:46:06;23.53;;;11.43;;
37451;SDS011;23314;51.114;6.900;2022-12-18T03:48:38;18.07;;;11.30;;
37451;SDS011;23314;51.114;6.900;2022-12-18T03:51:10;17.67;;;11.40;;
37451;SDS011;23314;51.114;6.900;2022-12-18T03:53:44;19.60;;;11.23;;
37451;SDS011;23314;51.114;6.900;2022-12-18T03:56:14;21.70;;;12.03;;
37451;SDS011;23314;51.114;6.900;2022-12-18T03:58:41;18.50;;;11.27;;
37451;SDS011;23314;51.114;6.900;2022-12-18T04:01:08;19.57;;;11.30;;
37451;SDS011;23314;51.114;6.900;2022-12-18T04:03:37;19.43;;;11.67;;
37451;SDS011;23314;51.114;6.900;2022-12-18T04:06:03;17.77;;;10.87;;
37451;SDS011;23314;51.114;6.900;2022-12-18T04:08:30;21.00;;;11.47;;
37451;SDS011;23314;51.114;6.900;2022-12-18T04:10:55;23.73;;;11.77;;
37451;SDS011;23314;51.114;6.900;2022-12-18T04:13:21;20.67;;;11.67;;
37451;SDS011;23314;51.114;6.900;2022-12-18T04:15:53;17.17;;;10.70;;
37451;SDS011;23314;51.114;6.900;2022-12-18T04:18:19;21.47;;;11.33;;
37451;SDS011;23314;51.114;6.900;2022-12-18T04:20:44;20.90;;;11.50;;
37451;SDS011;23314;51.114;6.900;2022-12-18T04:23:10;19.83;;;11.30;;
37451;SDS011;23314;51.114;6.900;2022-12-18T04:25:35;19.50;;;11.57;;
37451;SDS011;23314;51.114;6.900;2022-12-18T04:28:01;22.90;;;11.47;;
37451;SDS011;23314;51.114;6.900;2022-12-18T04:30:26;19.23;;;11.20;;
37451;SDS011;23314;51.114;6.900;2022-12-18T04:32:51;19.93;;;11.27;;
37451;SDS011;23314;51.114;6.900;2022-12-18T04:35:17;21.13;;;11.73;;
37451;SDS011;23314;51.114;6.900;2022-12-18T04:37:42;22.50;;;12.30;;
37451;SDS011;23314;51.114;6.900;2022-12-18T04:40:07;18.10;;;10.83;;
37451;SDS011;23314;51.114;6.900;2022-12-18T04:42:33;19.93;;;11.47;;
37451;SDS011;23314;51.114;6.900;2022-12-18T04:44:58;21.03;;;12.10;;
37451;SDS011;23314;51.114;6.900;2022-12-18T04:47:24;18.67;;;10.93;;
37451;SDS011;23314;51.114;6.900;2022-12-18T04:49:49;19.60;;;10.87;;
37451;SDS011;23314;51.114;6.900;2022-12-18T04:52:14;21.90;;;11.60;;
37451;SDS011;23314;51.114;6.900;2022-12-18T04:54:39;18.17;;;10.73;;
37451;SDS011;23314;51.114;6.900;2022-12-18T04:57:05;21.30;;;11.03;;
37451;SDS011;23314;51.114;6.900;2022-12-18T04:59:30;22.33;;;11.73;;
37451;SDS011;23314;51.114;6.900;2022-12-18T05:01:55;18.40;;;10.90;;
37451;SDS011;23314;51.114;6.900;2022-12-18T05:04:21;16.40;;;10.83;;
37451;SDS011;23314;51.114;6.900;2022-12-18T05:06:46;19.30;;;10.60;;
37451;SDS011;23314;51.114;6.900;2022-12-18T05:09:11;16.07;;;10.03;;
37451;SDS011;23314;51.114;6.900;2022-12-18T05:11:36;17.70;;;10.30;;
37451;SDS011;23314;51.114;6.900;2022-12-18T05:14:02;20.13;;;11.43;;
37451;SDS011;23314;51.114;6.900;2022-12-18T05:16:27;16.63;;;10.73;;
37451;SDS011;23314;51.114;6.900;2022-12-18T05:18:52;17.57;;;10.43;;
37451;SDS011;23314;51.114;6.900;2022-12-18T05:21:18;16.70;;;10.73;;
37451;SDS011;23314;51.114;6.900;2022-12-18T05:23:43;16.13;;;10.00;;
37451;SDS011;23314;51.114;6.900;2022-12-18T05:26:08;16.53;;;9.77;;
37451;SDS011;23314;51.114;6.900;2022-12-18T05:28:39;16.67;;;9.77;;
37451;SDS011;23314;51.114;6.900;2022-12-18T05:31:04;14.07;;;10.03;;
37451;SDS011;23314;51.114;6.900;2022-12-18T05:33:31;17.77;;;9.90;;
37451;SDS011;23314;51.114;6.900;2022-12-18T05:35:59;14.70;;;9.33;;
37451;SDS011;23314;51.114;6.900;2022-12-18T05:38:26;17.37;;;10.63;;
37451;SDS011;23314;51.114;6.900;2022-12-18T05:40:52;19.20;;;10.60;;
37451;SDS011;23314;51.114;6.900;2022-12-18T05:43:18;18.30;;;10.33;;
37451;SDS011;23314;51.114;6.900;2022-12-18T05:45:44;16.83;;;10.37;;
37451;SDS011;23314;51.114;6.900;2022-12-18T05:48:10;18.07;;;10.57;;
37451;SDS011;23314;51.114;6.900;2022-12-18T05:50:36;16.63;;;9.30;;
37451;SDS011;23314;51.114;6.900;2022-12-18T05:53:03;16.43;;;9.80;;
37451;SDS011;23314;51.114;6.900;2022-12-18T05:55:29;18.90;;;10.87;;
37451;SDS011;23314;51.114;6.900;2022-12-18T05:57:58;17.30;;;10.03;;
37451;SDS011;23314;51.114;6.900;2022-12-18T06:00:24;18.67;;;10.53;;
37451;SDS011;23314;51.114;6.900;2022-12-18T06:02:50;19.27;;;10.80;;
37451;SDS011;23314;51.114;6.900;2022-12-18T06:05:16;16.53;;;9.97;;
37451;SDS011;23314;51.114;6.900;2022-12-18T06:07:41;17.77;;;10.17;;
37451;SDS011;23314;51.114;6.900;2022-12-18T06:10:06;16.63;;;10.33;;
37451;SDS011;23314;51.114;6.900;2022-12-18T06:12:32;18.70;;;11.33;;
37451;SDS011;23314;51.114;6.900;2022-12-18T06:14:58;17.90;;;10.57;;
37451;SDS011;23314;51.114;6.900;2022-12-18T06:17:27;18.20;;;10.67;;
37451;SDS011;23314;51.114;6.900;2022-12-18T06:19:53;17.30;;;11.23;;
37451;SDS011;23314;51.114;6.900;2022-12-18T06:22:19;20.57;;;11.50;;
37451;SDS011;23314;51.114;6.900;2022-12-18T06:24:44;21.10;;;11.40;;
37451;SDS011;23314;51.114;6.900;2022-12-18T06:27:10;23.37;;;11.63;;
37451;SDS011;23314;51.114;6.900;2022-12-18T06:29:35;21.47;;;11.43;;
37451;SDS011;23314;51.114;6.900;2022-12-18T06:32:00;20.80;;;12.00;;
37451;SDS011;23314;51.114;6.900;2022-12-18T06:34:26;24.33;;;12.20;;
37451;SDS011;23314;51.114;6.900;2022-12-18T06:36:51;18.30;;;12.03;;
37451;SDS011;23314;51.114;6.900;2022-12-18T06:39:16;24.50;;;12.43;;
37451;SDS011;23314;51.114;6.900;2022-12-18T06:41:41;19.37;;;12.13;;
37451;SDS011;23314;51.114;6.900;2022-12-18T06:44:07;21.17;;;12.10;;
37451;SDS011;23314;51.114;6.900;2022-12-18T06:46:32;21.90;;;12.63;;
37451;SDS011;23314;51.114;6.900;2022-12-18T06:48:57;24.13;;;13.27;;
37451;SDS011;23314;51.114;6.900;2022-12-18T06:51:24;22.40;;;12.67;;
37451;SDS011;23314;51.114;6.900;2022-12-18T06:53:50;24.70;;;13.53;;
37451;SDS011;23314;51.114;6.900;2022-12-18T06:56:15;24.63;;;13.53;;
37451;SDS011;23314;51.114;6.900;2022-12-18T06:58:41;21.10;;;12.37;;
37451;SDS011;23314;51.114;6.900;2022-12-18T07:01:08;21.93;;;12.77;;
37451;SDS011;23314;51.114;6.900;2022-12-18T07:03:35;20.03;;;11.97;;
37451;SDS011;23314;51.114;6.900;2022-12-18T07:06:01;17.47;;;11.17;;
37451;SDS011;23314;51.114;6.900;2022-12-18T07:08:26;22.53;;;12.30;;
37451;SDS011;23314;51.114;6.900;2022-12-18T07:10:53;21.83;;;12.00;;
37451;SDS011;23314;51.114;6.900;2022-12-18T07:13:19;20.90;;;11.83;;
37451;SDS011;23314;51.114;6.900;2022-12-18T07:15:44;21.70;;;12.27;;
37451;SDS011;23314;51.114;6.900;2022-12-18T07:18:09;20.07;;;12.27;;
37451;SDS011;23314;51.114;6.900;2022-12-18T07:20:35;18.77;;;11.50;;
37451;SDS011;23314;51.114;6.900;2022-12-18T07:23:04;20.87;;;12.23;;
37451;SDS011;23314;51.114;6.900;2022-12-18T07:25:30;18.37;;;11.10;;
37451;SDS011;23314;51.114;6.900;2022-12-18T07:27:58;21.93;;;11.83;;
37451;SDS011;23314;51.114;6.900;2022-12-18T07:30:24;20.87;;;12.03;;
37451;SDS011;23314;51.114;6.900;2022-12-18T07:32:49;21.67;;;11.77;;
37451;SDS011;23314;51.114;6.900;2022-12-18T07:35:14;19.93;;;11.57;;
37451;SDS011;23314;51.114;6.900;2022-12-18T07:37:40;21.70;;;11.97;;
37451;SDS011;23314;51.114;6.900;2022-12-18T07:40:05;22.43;;;11.93;;
37451;SDS011;23314;51.114;6.900;2022-12-18T07:42:31;18.67;;;11.83;;
37451;SDS011;23314;51.114;6.900;2022-12-18T07:44:57;21.17;;;12.10;;
37451;SDS011;23314;51.114;6.900;2022-12-18T07:47:22;18.93;;;11.77;;
37451;SDS011;23314;51.114;6.900;2022-12-18T07:49:48;22.33;;;12.13;;
37451;SDS011;23314;51.114;6.900;2022-12-18T07:52:13;20.87;;;11.80;;
37451;SDS011;23314;51.114;6.900;2022-12-18T07:54:38;20.07;;;12.37;;
37451;SDS011;23314;51.114;6.900;2022-12-18T07:57:05;22.70;;;12.40;;
37451;SDS011;23314;51.114;6.900;2022-12-18T07:59:30;25.93;;;12.50;;
37451;SDS011;23314;51.114;6.900;2022-12-18T08:01:56;25.77;;;12.87;;
37451;SDS011;23314;51.114;6.900;2022-12-18T08:04:21;21.97;;;11.97;;
37451;SDS011;23314;51.114;6.900;2022-12-18T08:06:47;22.00;;;11.83;;
37451;SDS011;23314;51.114;6.900;2022-12-18T08:09:12;21.70;;;12.47;;
37451;SDS011;23314;51.114;6.900;2022-12-18T08:11:38;21.27;;;12.17;;
37451;SDS011;23314;51.114;6.900;2022-12-18T08:14:03;24.10;;;12.83;;
37451;SDS011;23314;51.114;6.900;2022-12-18T08:16:28;22.13;;;12.53;;
37451;SDS011;23314;51.114;6.900;2022-12-18T08:18:54;20.33;;;12.00;;
37451;SDS011;23314;51.114;6.900;2022-12-18T08:21:21;17.90;;;10.60;;
37451;SDS011;23314;51.114;6.900;2022-12-18T08:23:51;22.33;;;12.07;;
37451;SDS011;23314;51.114;6.900;2022-12-18T08:26:18;20.83;;;12.13;;
37451;SDS011;23314;51.114;6.900;2022-12-18T08:28:44;22.33;;;12.67;;
37451;SDS011;23314;51.114;6.900;2022-12-18T08:31:09;21.50;;;12.07;;
37451;SDS011;23314;51.114;6.900;2022-12-18T08:33:35;18.23;;;12.30;;
37451;SDS011;23314;51.114;6.900;2022-12-18T08:36:03;20.30;;;11.57;;
37451;SDS011;23314;51.114;6.900;2022-12-18T08:38:29;20.53;;;12.20;;
37451;SDS011;23314;51.114;6.900;2022-12-18T08:43:25;19.83;;;11.20;;
37451;SDS011;23314;51.114;6.900;2022-12-18T08:46:10;21.27;;;12.43;;
37451;SDS011;23314;51.114;6.900;2022-12-18T08:48:35;19.87;;;11.83;;
37451;SDS011;23314;51.114;6.900;2022-12-18T08:51:01;21.77;;;11.83;;
37451;SDS011;23314;51.114;6.900;2022-12-18T08:53:26;22.63;;;12.67;;
37451;SDS011;23314;51.114;6.900;2022-12-18T08:55:52;17.50;;;11.07;;
37451;SDS011;23314;51.114;6.900;2022-12-18T08:58:18;19.97;;;11.37;;
37451;SDS011;23314;51.114;6.900;2022-12-18T09:00:44;19.83;;;10.70;;
37451;SDS011;23314;51.114;6.900;2022-12-18T09:03:16;18.77;;;11.53;;
37451;SDS011;23314;51.114;6.900;2022-12-18T09:05:42;19.37;;;10.93;;
37451;SDS011;23314;51.114;6.900;2022-12-18T09:08:10;17.23;;;11.00;;
37451;SDS011;23314;51.114;6.900;2022-12-18T09:10:41;17.63;;;11.73;;
37451;SDS011;23314;51.114;6.900;2022-12-18T09:13:09;19.27;;;11.23;;
37451;SDS011;23314;51.114;6.900;2022-12-18T09:15:39;16.77;;;10.37;;
37451;SDS011;23314;51.114;6.900;2022-12-18T09:18:16;17.33;;;10.63;;
37451;SDS011;23314;51.114;6.900;2022-12-18T09:20:42;17.07;;;10.30;;
37451;SDS011;23314;51.114;6.900;2022-12-18T09:23:08;19.67;;;10.83;;
37451;SDS011;23314;51.114;6.900;2022-12-18T09:25:34;18.20;;;11.13;;
37451;SDS011;23314;51.114;6.900;2022-12-18T09:28:01;16.53;;;10.83;;
37451;SDS011;23314;51.114;6.900;2022-12-18T09:30:28;21.17;;;10.87;;
37451;SDS011;23314;51.114;6.900;2022-12-18T09:32:53;15.83;;;10.67;;
37451;SDS011;23314;51.114;6.900;2022-12-18T09:35:18;18.27;;;11.67;;
37451;SDS011;23314;51.114;6.900;2022-12-18T09:37:44;14.33;;;10.33;;
37451;SDS011;23314;51.114;6.900;2022-12-18T09:40:13;15.63;;;10.00;;
37451;SDS011;23314;51.114;6.900;2022-12-18T09:42:41;17.17;;;10.70;;
37451;SDS011;23314;51.114;6.900;2022-12-18T09:45:13;17.87;;;10.23;;
37451;SDS011;23314;51.114;6.900;2022-12-18T09:47:40;20.10;;;11.23;;
37451;SDS011;23314;51.114;6.900;2022-12-18T09:52:56;17.97;;;10.43;;
37451;SDS011;23314;51.114;6.900;2022-12-18T09:55:36;15.57;;;10.30;;
37451;SDS011;23314;51.114;6.900;2022-12-18T09:58:18;17.77;;;11.03;;
37451;SDS011;23314;51.114;6.900;2022-12-18T10:00:51;19.57;;;10.90;;
37451;SDS011;23314;51.114;6.900;2022-12-18T10:03:18;16.20;;;10.40;;
37451;SDS011;23314;51.114;6.900;2022-12-18T10:05:50;17.80;;;10.43;;
37451;SDS011;23314;51.114;6.900;2022-12-18T10:11:21;16.47;;;10.40;;
37451;SDS011;23314;51.114;6.900;2022-12-18T10:13:52;15.23;;;9.87;;
37451;SDS011;23314;51.114;6.900;2022-12-18T10:25:40;15.13;;;9.90;;
37451;SDS011;23314;51.114;6.900;2022-12-18T10:27:46;15.73;;;10.27;;
37451;SDS011;23314;51.114;6.900;2022-12-18T10:30:12;15.07;;;10.27;;
37451;SDS011;23314;51.114;6.900;2022-12-18T10:32:40;21.23;;;9.60;;
37451;SDS011;23314;51.114;6.900;2022-12-18T10:35:07;15.17;;;8.33;;
37451;SDS011;23314;51.114;6.900;2022-12-18T10:37:40;17.03;;;9.90;;
37451;SDS011;23314;51.114;6.900;2022-12-18T10:40:28;13.73;;;9.47;;
37451;SDS011;23314;51.114;6.900;2022-12-18T10:43:04;18.10;;;10.07;;
37451;SDS011;23314;51.114;6.900;2022-12-18T10:45:35;16.90;;;9.53;;
37451;SDS011;23314;51.114;6.900;2022-12-18T10:48:01;16.03;;;9.87;;
37451;SDS011;23314;51.114;6.900;2022-12-18T10:50:31;17.20;;;10.07;;
37451;SDS011;23314;51.114;6.900;2022-12-18T10:52:58;14.93;;;9.10;;
37451;SDS011;23314;51.114;6.900;2022-12-18T10:55:27;17.03;;;10.27;;
37451;SDS011;23314;51.114;6.900;2022-12-18T10:58:01;17.03;;;10.40;;
37451;SDS011;23314;51.114;6.900;2022-12-18T11:00:40;15.50;;;9.20;;
37451;SDS011;23314;51.114;6.900;2022-12-18T11:03:15;15.23;;;9.60;;
37451;SDS011;23314;51.114;6.900;2022-12-18T11:06:22;14.37;;;9.67;;
37451;SDS011;23314;51.114;6.900;2022-12-18T11:09:02;13.77;;;9.63;;
37451;SDS011;23314;51.114;6.900;2022-12-18T11:11:29;16.70;;;9.80;;
37451;SDS011;23314;51.114;6.900;2022-12-18T11:14:01;13.20;;;9.23;;
37451;SDS011;23314;51.114;6.900;2022-12-18T11:16:29;16.87;;;10.20;;
37451;SDS011;23314;51.114;6.900;2022-12-18T11:21:50;15.10;;;10.60;;
37451;SDS011;23314;51.114;6.900;2022-12-18T11:27:05;13.77;;;9.63;;
37451;SDS011;23314;51.114;6.900;2022-12-18T11:29:40;16.33;;;9.87;;
37451;SDS011;23314;51.114;6.900;2022-12-18T11:34:47;14.37;;;10.53;;
37451;SDS011;23314;51.114;6.900;2022-12-18T11:37:17;17.63;;;11.63;;
37451;SDS011;23314;51.114;6.900;2022-12-18T11:39:46;19.70;;;10.73;;
37451;SDS011;23314;51.114;6.900;2022-12-18T11:50:43;19.23;;;12.00;;
37451;SDS011;23314;51.114;6.900;2022-12-18T11:53:14;20.60;;;11.50;;
37451;SDS011;23314;51.114;6.900;2022-12-18T11:55:58;17.37;;;12.10;;
37451;SDS011;23314;51.114;6.900;2022-12-18T11:58:57;19.67;;;11.53;;
37451;SDS011;23314;51.114;6.900;2022-12-18T12:01:36;17.50;;;11.63;;
37451;SDS011;23314;51.114;6.900;2022-12-18T12:04:10;20.23;;;12.23;;
37451;SDS011;23314;51.114;6.900;2022-12-18T12:26:55;23.63;;;13.50;;
37451;SDS011;23314;51.114;6.900;2022-12-18T12:32:22;26.37;;;14.00;;
37451;SDS011;23314;51.114;6.900;2022-12-18T12:40:13;21.87;;;12.73;;
37451;SDS011;23314;51.114;6.900;2022-12-18T12:42:45;19.97;;;13.53;;
37451;SDS011;23314;51.114;6.900;2022-12-18T12:45:37;22.53;;;14.40;;
37451;SDS011;23314;51.114;6.900;2022-12-18T12:48:04;24.37;;;13.67;;
37451;SDS011;23314;51.114;6.900;2022-12-18T12:50:36;21.00;;;14.57;;
37451;SDS011;23314;51.114;6.900;2022-12-18T12:53:05;22.30;;;14.67;;
37451;SDS011;23314;51.114;6.900;2022-12-18T12:55:34;24.57;;;14.70;;
37451;SDS011;23314;51.114;6.900;2022-12-18T13:01:21;26.77;;;14.50;;
37451;SDS011;23314;51.114;6.900;2022-12-18T13:03:56;21.50;;;14.20;;
37451;SDS011;23314;51.114;6.900;2022-12-18T13:08:59;26.13;;;15.63;;
37451;SDS011;23314;51.114;6.900;2022-12-18T13:14:22;24.87;;;14.30;;
37451;SDS011;23314;51.114;6.900;2022-12-18T13:17:13;22.27;;;14.03;;
37451;SDS011;23314;51.114;6.900;2022-12-18T13:19:50;25.57;;;15.57;;
37451;SDS011;23314;51.114;6.900;2022-12-18T13:22:46;24.47;;;15.50;;
37451;SDS011;23314;51.114;6.900;2022-12-18T13:28:09;22.10;;;15.40;;
37451;SDS011;23314;51.114;6.900;2022-12-18T13:35:42;22.80;;;14.83;;
37451;SDS011;23314;51.114;6.900;2022-12-18T13:41:38;23.53;;;14.97;;
37451;SDS011;23314;51.114;6.900;2022-12-18T13:43:56;26.93;;;15.77;;
37451;SDS011;23314;51.114;6.900;2022-12-18T13:51:49;27.70;;;16.57;;
37451;SDS011;23314;51.114;6.900;2022-12-18T13:54:22;30.13;;;17.03;;
37451;SDS011;23314;51.114;6.900;2022-12-18T13:56:53;26.17;;;15.37;;
37451;SDS011;23314;51.114;6.900;2022-12-18T13:59:20;26.27;;;16.07;;
37451;SDS011;23314;51.114;6.900;2022-12-18T14:01:54;26.60;;;15.33;;
37451;SDS011;23314;51.114;6.900;2022-12-18T14:07:12;26.07;;;15.87;;
37451;SDS011;23314;51.114;6.900;2022-12-18T14:09:43;23.23;;;14.70;;
37451;SDS011;23314;51.114;6.900;2022-12-18T14:12:44;25.27;;;16.50;;
37451;SDS011;23314;51.114;6.900;2022-12-18T14:17:50;21.83;;;14.37;;
37451;SDS011;23314;51.114;6.900;2022-12-18T14:20:20;27.67;;;17.43;;
37451;SDS011;23314;51.114;6.900;2022-12-18T14:22:47;29.33;;;17.50;;
37451;SDS011;23314;51.114;6.900;2022-12-18T14:25:21;26.23;;;17.10;;
37451;SDS011;23314;51.114;6.900;2022-12-18T14:27:50;25.17;;;15.93;;
37451;SDS011;23314;51.114;6.900;2022-12-18T14:30:35;24.20;;;16.70;;
37451;SDS011;23314;51.114;6.900;2022-12-18T14:35:34;26.03;;;17.60;;
37451;SDS011;23314;51.114;6.900;2022-12-18T14:38:10;29.63;;;17.40;;
37451;SDS011;23314;51.114;6.900;2022-12-18T14:40:41;24.93;;;16.63;;
37451;SDS011;23314;51.114;6.900;2022-12-18T14:43:09;29.97;;;16.77;;
37451;SDS011;23314;51.114;6.900;2022-12-18T14:45:36;28.83;;;16.47;;
37451;SDS011;23314;51.114;6.900;2022-12-18T14:48:08;27.33;;;16.87;;
37451;SDS011;23314;51.114;6.900;2022-12-18T14:50:38;25.20;;;16.80;;
37451;SDS011;23314;51.114;6.900;2022-12-18T14:53:04;28.50;;;16.97;;
37451;SDS011;23314;51.114;6.900;2022-12-18T14:55:29;27.07;;;15.63;;
37451;SDS011;23314;51.114;6.900;2022-12-18T14:57:55;28.93;;;18.53;;
37451;SDS011;23314;51.114;6.900;2022-12-18T15:00:22;27.63;;;16.13;;
37451;SDS011;23314;51.114;6.900;2022-12-18T15:02:50;28.00;;;17.50;;
37451;SDS011;23314;51.114;6.900;2022-12-18T15:05:20;27.43;;;16.40;;
37451;SDS011;23314;51.114;6.900;2022-12-18T15:07:51;27.97;;;18.13;;
37451;SDS011;23314;51.114;6.900;2022-12-18T15:10:21;30.00;;;18.10;;
37451;SDS011;23314;51.114;6.900;2022-12-18T15:12:50;28.10;;;17.33;;
37451;SDS011;23314;51.114;6.900;2022-12-18T15:20:33;30.87;;;18.10;;
37451;SDS011;23314;51.114;6.900;2022-12-18T15:23:28;26.67;;;16.90;;
37451;SDS011;23314;51.114;6.900;2022-12-18T15:26:10;27.27;;;18.13;;
37451;SDS011;23314;51.114;6.900;2022-12-18T15:28:39;29.93;;;17.80;;
37451;SDS011;23314;51.114;6.900;2022-12-18T15:33:37;30.23;;;18.07;;
37451;SDS011;23314;51.114;6.900;2022-12-18T15:36:10;28.40;;;18.53;;
37451;SDS011;23314;51.114;6.900;2022-12-18T15:38:41;29.47;;;17.97;;
37451;SDS011;23314;51.114;6.900;2022-12-18T15:41:11;29.90;;;18.47;;
37451;SDS011;23314;51.114;6.900;2022-12-18T15:43:39;32.83;;;18.47;;
37451;SDS011;23314;51.114;6.900;2022-12-18T15:46:05;28.40;;;18.07;;
37451;SDS011;23314;51.114;6.900;2022-12-18T15:48:42;31.67;;;18.50;;
37451;SDS011;23314;51.114;6.900;2022-12-18T15:51:22;35.23;;;19.17;;
37451;SDS011;23314;51.114;6.900;2022-12-18T15:53:50;30.47;;;18.70;;
37451;SDS011;23314;51.114;6.900;2022-12-18T15:56:19;32.10;;;18.67;;
37451;SDS011;23314;51.114;6.900;2022-12-18T15:59:04;32.30;;;19.13;;
37451;SDS011;23314;51.114;6.900;2022-12-18T16:01:35;33.40;;;18.63;;
37451;SDS011;23314;51.114;6.900;2022-12-18T16:04:00;31.80;;;20.10;;
37451;SDS011;23314;51.114;6.900;2022-12-18T16:06:25;31.27;;;19.37;;
37451;SDS011;23314;51.114;6.900;2022-12-18T16:08:51;33.90;;;20.07;;
37451;SDS011;23314;51.114;6.900;2022-12-18T16:11:20;32.17;;;18.97;;
37451;SDS011;23314;51.114;6.900;2022-12-18T16:16:43;33.13;;;20.57;;
37451;SDS011;23314;51.114;6.900;2022-12-18T16:19:09;34.10;;;20.50;;
37451;SDS011;23314;51.114;6.900;2022-12-18T16:21:35;33.13;;;20.90;;
37451;SDS011;23314;51.114;6.900;2022-12-18T16:24:00;36.37;;;20.87;;
37451;SDS011;23314;51.114;6.900;2022-12-18T16:26:26;34.47;;;20.13;;
37451;SDS011;23314;51.114;6.900;2022-12-18T16:28:51;32.73;;;20.77;;
37451;SDS011;23314;51.114;6.900;2022-12-18T16:31:18;36.93;;;20.47;;
37451;SDS011;23314;51.114;6.900;2022-12-18T16:33:44;34.33;;;20.97;;
37451;SDS011;23314;51.114;6.900;2022-12-18T16:36:09;37.13;;;22.17;;
37451;SDS011;23314;51.114;6.900;2022-12-18T16:38:34;37.40;;;21.33;;
37451;SDS011;23314;51.114;6.900;2022-12-18T16:41:00;37.23;;;21.80;;